Time;durP1;ratioP1;P1;durP2;ratioP2;P2;SDS_P1;SDS_P2;PMS_P1;PMS_P2;Temp;Humidity;BMP_temperature;BMP_pressure;BME280_temperature;BME280_humidity;BME280_pressure;Samples;Min_cycle;Max_cycle;Signal;HPM_P1;HPM_P2
2023/06/28 00:00:18;;;;;;;2.58;1.52;;;21.40;58.80;;;;;;5011493;28;20116;-45
2023/06/28 00:02:47;;;;;;;4.80;1.55;;;21.40;58.40;;;;;;4995797;28;20100;-45
2023/06/28 00:05:14;;;;;;;1.88;1.67;;;21.30;58.50;;;;;;4999357;28;20601;-47
2023/06/28 00:07:47;;;;;;;2.35;1.60;;;21.20;59.00;;;;;;5010588;28;20042;-45
2023/06/28 00:10:17;;;;;;;2.53;1.50;;;21.30;59.40;;;;;;5003914;28;20312;-45
2023/06/28 00:12:53;;;;;;;4.53;2.45;;;21.30;59.50;;;;;;4991476;28;20045;-49
2023/06/28 00:15:38;;;;;;;2.67;1.70;;;21.30;59.50;;;;;;5007420;28;20104;-47
2023/06/28 00:18:11;;;;;;;2.92;1.88;;;21.20;59.10;;;;;;5012023;28;20061;-46
2023/06/28 00:20:41;;;;;;;2.03;1.60;;;21.20;59.80;;;;;;5004016;28;20070;-46
2023/06/28 00:23:13;;;;;;;2.33;1.52;;;21.20;59.40;;;;;;4991650;28;20049;-46
2023/06/28 00:25:42;;;;;;;4.10;1.80;;;21.20;59.20;;;;;;4986916;28;20407;-45
2023/06/28 00:28:09;;;;;;;4.35;2.47;;;21.20;59.30;;;;;;5011320;28;20038;-49
2023/06/28 00:30:35;;;;;;;5.30;3.38;;;21.20;59.40;;;;;;5009447;28;20433;-44
2023/06/28 00:33:02;;;;;;;3.30;2.00;;;21.10;59.50;;;;;;4990136;28;20582;-45
2023/06/28 00:35:29;;;;;;;2.65;1.60;;;21.10;59.60;;;;;;4983456;28;20054;-46
2023/06/28 00:37:55;;;;;;;2.42;1.60;;;21.10;60.00;;;;;;5004423;28;20069;-46
2023/06/28 00:40:22;;;;;;;2.08;1.65;;;21.10;60.10;;;;;;5010726;28;20077;-47
2023/06/28 00:42:49;;;;;;;1.90;1.80;;;21.10;59.80;;;;;;4996511;28;20096;-45
2023/06/28 00:45:20;;;;;;;3.38;2.05;;;21.00;59.90;;;;;;5002131;28;20030;-44
2023/06/28 00:47:50;;;;;;;1.90;1.80;;;21.10;59.80;;;;;;5010317;28;20120;-46
2023/06/28 00:50:28;;;;;;;2.05;1.83;;;21.00;59.70;;;;;;5009679;28;20034;-49
2023/06/28 00:53:01;;;;;;;3.03;2.15;;;21.00;59.90;;;;;;4974159;28;20514;-48
2023/06/28 00:55:30;;;;;;;2.63;1.60;;;21.00;60.00;;;;;;4984366;28;20039;-47
2023/06/28 00:58:01;;;;;;;4.57;1.90;;;21.00;60.10;;;;;;4996636;28;20041;-46
2023/06/28 01:00:30;;;;;;;2.58;1.98;;;20.90;60.00;;;;;;5007841;28;20049;-44
2023/06/28 01:03:04;;;;;;;2.70;1.88;;;21.00;60.30;;;;;;4999296;28;20071;-45
2023/06/28 01:05:35;;;;;;;2.28;2.08;;;20.90;59.80;;;;;;5008666;28;20117;-45
2023/06/28 01:08:04;;;;;;;3.28;2.13;;;20.90;60.00;;;;;;5002684;28;20061;-49
2023/06/28 01:10:37;;;;;;;2.28;2.08;;;20.90;60.30;;;;;;4988511;28;20034;-44
2023/06/28 01:13:14;;;;;;;2.58;1.80;;;20.90;60.30;;;;;;4996431;28;20030;-48
2023/06/28 01:15:41;;;;;;;3.22;2.00;;;20.90;59.70;;;;;;5007785;28;20046;-45
2023/06/28 01:18:11;;;;;;;2.33;1.90;;;20.80;59.70;;;;;;4988878;28;20405;-47
2023/06/28 01:20:49;;;;;;;4.68;2.22;;;20.80;60.00;;;;;;5001648;28;20044;-45
2023/06/28 01:23:26;;;;;;;2.72;2.20;;;20.80;60.60;;;;;;4991054;28;20058;-45
2023/06/28 01:25:56;;;;;;;4.22;2.42;;;20.80;61.10;;;;;;4985658;28;20100;-49
2023/06/28 01:28:26;;;;;;;1.92;1.70;;;20.70;60.70;;;;;;5010346;28;20494;-46
2023/06/28 01:30:56;;;;;;;5.63;2.47;;;20.70;60.90;;;;;;5003322;28;20125;-46
2023/06/28 01:33:29;;;;;;;2.60;1.80;;;20.70;61.30;;;;;;4988166;28;20042;-47
2023/06/28 01:35:58;;;;;;;2.13;1.95;;;20.70;61.60;;;;;;4982788;28;20041;-48
2023/06/28 01:38:28;;;;;;;2.10;1.90;;;20.60;61.60;;;;;;5004681;28;20069;-45
2023/06/28 01:41:00;;;;;;;2.08;1.83;;;20.60;61.40;;;;;;5001837;28;20042;-47
2023/06/28 01:43:30;;;;;;;5.93;2.88;;;20.60;61.50;;;;;;4990680;28;20046;-49
2023/06/28 01:45:58;;;;;;;2.17;1.98;;;20.60;61.50;;;;;;4993358;28;20068;-45
2023/06/28 01:48:27;;;;;;;4.35;2.50;;;20.60;61.80;;;;;;4994611;28;20042;-47
2023/06/28 01:50:57;;;;;;;;;;;20.60;61.90;;;;;;4996686;28;20034;-46
2023/06/28 01:53:25;;;;;;;2.92;2.22;;;20.70;61.20;;;;;;4996397;28;19951;-46
2023/06/28 01:55:54;;;;;;;2.03;1.85;;;20.60;61.30;;;;;;4990881;28;20656;-46
2023/06/28 01:58:23;;;;;;;2.45;2.25;;;20.60;61.70;;;;;;4997557;28;20046;-46
2023/06/28 02:00:50;;;;;;;3.33;2.00;;;20.60;61.80;;;;;;5006954;28;20506;-46
2023/06/28 02:03:29;;;;;;;3.78;3.42;;;20.60;61.70;;;;;;4990004;28;20125;-49
2023/06/28 02:05:58;;;;;;;3.53;2.17;;;20.60;61.90;;;;;;5007811;28;20027;-45
2023/06/28 02:08:27;;;;;;;3.63;2.38;;;20.60;62.10;;;;;;5008298;28;20084;-47
2023/06/28 02:10:56;;;;;;;4.50;2.13;;;20.60;62.40;;;;;;5003689;28;20047;-49
2023/06/28 02:13:23;;;;;;;3.92;2.20;;;20.60;62.20;;;;;;4982288;28;20038;-45
2023/06/28 02:15:52;;;;;;;3.00;2.20;;;20.50;62.00;;;;;;5007275;28;20458;-45
2023/06/28 02:18:24;;;;;;;3.92;2.50;;;20.50;61.90;;;;;;5008480;28;20054;-46
2023/06/28 02:20:53;;;;;;;4.28;2.78;;;20.60;62.00;;;;;;4999548;28;20587;-46
2023/06/28 02:23:23;;;;;;;3.17;2.88;;;20.60;62.00;;;;;;4989273;28;20530;-46
2023/06/28 02:25:51;;;;;;;3.72;2.40;;;20.60;61.90;;;;;;4992572;28;20041;-45
2023/06/28 02:28:23;;;;;;;3.72;2.78;;;20.60;62.30;;;;;;5008421;28;20487;-46
2023/06/28 02:30:49;;;;;;;6.68;3.28;;;20.60;62.70;;;;;;5007984;28;20124;-45
2023/06/28 02:33:16;;;;;;;2.50;2.30;;;20.60;62.90;;;;;;4993629;28;20073;-45
2023/06/28 02:35:44;;;;;;;3.03;2.60;;;20.60;62.40;;;;;;4990487;28;20045;-46
2023/06/28 02:38:11;;;;;;;4.88;2.80;;;20.60;62.30;;;;;;5003057;28;20080;-46
2023/06/28 02:40:38;;;;;;;5.97;2.45;;;20.60;62.60;;;;;;5007276;28;20108;-48
2023/06/28 02:43:07;;;;;;;4.72;2.50;;;20.60;62.60;;;;;;4993356;28;20499;-46
2023/06/28 02:45:35;;;;;;;3.35;2.60;;;20.60;62.60;;;;;;4999840;28;20040;-44
2023/06/28 02:48:05;;;;;;;2.47;2.20;;;20.60;62.60;;;;;;4993760;28;20498;-45
2023/06/28 02:50:32;;;;;;;3.30;2.63;;;20.60;63.20;;;;;;5007097;28;20053;-46
2023/06/28 02:53:05;;;;;;;4.68;2.33;;;20.60;63.10;;;;;;5008433;22;22456;-48
2023/06/28 02:55:34;;;;;;;3.45;2.20;;;20.60;62.80;;;;;;5021270;28;20050;-47
2023/06/28 02:58:05;;;;;;;5.13;2.22;;;20.60;63.10;;;;;;5023688;28;20041;-47
2023/06/28 03:00:33;;;;;;;2.90;2.60;;;20.60;63.00;;;;;;5030753;28;20096;-45
2023/06/28 03:03:03;;;;;;;2.88;2.38;;;20.60;62.90;;;;;;5025189;28;20042;-47
2023/06/28 03:05:34;;;;;;;4.93;2.55;;;20.60;63.20;;;;;;5019331;28;20074;-46
2023/06/28 03:08:03;;;;;;;6.72;3.33;;;20.60;63.40;;;;;;5008389;28;20041;-46
2023/06/28 03:10:32;;;;;;;5.80;2.80;;;20.60;63.40;;;;;;5028162;28;20052;-45
2023/06/28 03:12:59;;;;;;;3.15;2.50;;;20.60;63.60;;;;;;5030512;28;20037;-46
2023/06/28 03:15:26;;;;;;;3.08;2.30;;;20.60;63.00;;;;;;4998791;28;20042;-47
2023/06/28 03:17:59;;;;;;;6.68;2.47;;;20.60;62.90;;;;;;5030417;28;20136;-46
2023/06/28 03:20:31;;;;;;;3.55;2.30;;;20.60;63.10;;;;;;5030751;28;20073;-46
2023/06/28 03:23:00;;;;;;;3.97;2.35;;;20.60;63.80;;;;;;5024153;28;20325;-46
2023/06/28 03:25:27;;;;;;;3.97;2.28;;;20.60;63.00;;;;;;5006860;28;20074;-47
2023/06/28 03:27:54;;;;;;;4.30;2.25;;;20.60;62.90;;;;;;5012485;28;20472;-46
2023/06/28 03:30:22;;;;;;;3.13;2.40;;;20.60;63.20;;;;;;5030469;28;20045;-46
2023/06/28 03:32:50;;;;;;;4.00;2.50;;;20.60;63.30;;;;;;5029656;28;20128;-47
2023/06/28 03:35:18;;;;;;;3.63;2.40;;;20.60;63.60;;;;;;5031420;28;20048;-46
2023/06/28 03:37:53;;;;;;;5.95;3.00;;;20.60;63.30;;;;;;5007121;28;20426;-46
2023/06/28 03:40:22;;;;;;;7.45;2.95;;;20.60;64.00;;;;;;5020191;28;20049;-48
2023/06/28 03:42:49;;;;;;;4.63;2.90;;;20.50;63.70;;;;;;5029601;28;20053;-46
2023/06/28 03:45:16;;;;;;;9.05;3.20;;;20.50;63.60;;;;;;5012897;28;20157;-48
2023/06/28 03:47:47;;;;;;;4.80;3.13;;;20.50;63.90;;;;;;5025683;28;20045;-48
2023/06/28 03:50:16;;;;;;;5.07;3.13;;;20.50;64.10;;;;;;5026940;28;20038;-46
2023/06/28 03:52:43;;;;;;;4.13;2.70;;;20.50;64.10;;;;;;5017690;28;20041;-47
2023/06/28 03:55:11;;;;;;;4.97;2.80;;;20.50;64.10;;;;;;5023104;28;20058;-46
2023/06/28 03:57:39;;;;;;;4.05;3.28;;;20.50;64.00;;;;;;5026937;28;20053;-46
2023/06/28 04:00:12;;;;;;;7.00;2.75;;;20.50;64.20;;;;;;5031644;28;20046;-46
2023/06/28 04:02:41;;;;;;;5.20;2.90;;;20.50;64.10;;;;;;5014219;28;20410;-50
2023/06/28 04:05:08;;;;;;;4.53;3.20;;;20.50;64.40;;;;;;5030437;28;20045;-48
2023/06/28 04:07:40;;;;;;;5.50;3.10;;;20.50;64.50;;;;;;5023709;28;20042;-46
2023/06/28 04:10:07;;;;;;;4.60;2.78;;;20.50;65.10;;;;;;5009749;28;20049;-49
2023/06/28 04:12:34;;;;;;;2.65;2.20;;;20.60;64.70;;;;;;5007793;28;20515;-49
2023/06/28 04:15:01;;;;;;;4.45;3.22;;;20.50;64.60;;;;;;5029550;28;20062;-48
2023/06/28 04:17:28;;;;;;;6.75;2.95;;;20.50;64.80;;;;;;5031235;28;20124;-48
2023/06/28 04:19:57;;;;;;;5.25;3.10;;;20.50;64.70;;;;;;5023003;28;20583;-47
2023/06/28 04:22:24;;;;;;;4.75;3.03;;;20.60;64.80;;;;;;5011713;28;20042;-46
2023/06/28 04:24:52;;;;;;;4.88;3.13;;;20.60;64.80;;;;;;5013707;28;20137;-47
2023/06/28 04:27:19;;;;;;;7.32;3.25;;;20.60;64.90;;;;;;5010969;28;20038;-47
2023/06/28 04:29:48;;;;;;;5.35;2.92;;;20.60;64.80;;;;;;5023953;28;20045;-48
2023/06/28 04:32:25;;;;;;;5.15;2.63;;;20.60;65.10;;;;;;5023508;28;20116;-46
2023/06/28 04:34:59;;;;;;;6.03;2.35;;;20.60;65.90;;;;;;5029801;28;20100;-46
2023/06/28 04:37:31;;;;;;;8.23;3.00;;;20.60;65.10;;;;;;5014502;28;20050;-45
2023/06/28 04:40:03;;;;;;;10.48;4.13;;;20.60;64.80;;;;;;5023226;28;20567;-47
2023/06/28 04:42:34;;;;;;;6.22;3.03;;;20.60;64.70;;;;;;5017074;28;20048;-47
2023/06/28 04:45:02;;;;;;;4.25;3.10;;;20.60;64.80;;;;;;5029199;28;21106;-45
2023/06/28 04:47:29;;;;;;;9.65;3.25;;;20.60;64.30;;;;;;5013361;28;20042;-49
2023/06/28 04:49:56;;;;;;;3.75;2.75;;;20.60;64.60;;;;;;5022252;28;20041;-47
2023/06/28 04:52:23;;;;;;;6.47;3.35;;;20.60;64.60;;;;;;5024611;28;20116;-49
2023/06/28 04:54:52;;;;;;;4.05;3.10;;;20.70;64.70;;;;;;5005998;28;20073;-48
2023/06/28 04:57:20;;;;;;;7.95;3.30;;;20.60;64.40;;;;;;5017047;28;20127;-48
2023/06/28 04:59:50;;;;;;;3.83;2.85;;;20.60;64.60;;;;;;5026902;28;20052;-46
2023/06/28 05:02:29;;;;;;;5.28;3.08;;;20.60;64.80;;;;;;5026078;28;20041;-46
2023/06/28 05:04:56;;;;;;;4.13;2.97;;;20.60;64.70;;;;;;5006536;28;20428;-46
2023/06/28 05:07:22;;;;;;;4.75;3.22;;;20.70;64.80;;;;;;5029217;28;20152;-48
2023/06/28 05:09:49;;;;;;;4.35;2.75;;;20.70;64.80;;;;;;5013959;28;20121;-46
2023/06/28 05:12:16;;;;;;;3.58;2.95;;;20.70;64.80;;;;;;5022703;28;20047;-49
2023/06/28 05:14:45;;;;;;;3.03;2.72;;;20.70;65.00;;;;;;5029236;28;20566;-46
2023/06/28 05:17:11;;;;;;;5.75;3.10;;;20.70;65.20;;;;;;5018447;28;20120;-47
2023/06/28 05:19:38;;;;;;;7.13;3.10;;;20.70;65.20;;;;;;5003510;28;20129;-49
2023/06/28 05:22:05;;;;;;;4.88;3.13;;;20.70;65.40;;;;;;5026338;28;20075;-47
2023/06/28 05:24:35;;;;;;;4.05;2.90;;;20.70;65.10;;;;;;5010843;28;20045;-46
2023/06/28 05:27:02;;;;;;;6.88;2.83;;;20.70;64.90;;;;;;5019146;28;20074;-47
2023/06/28 05:29:31;;;;;;;5.60;3.53;;;20.70;64.70;;;;;;5004297;28;20042;-46
2023/06/28 05:31:58;;;;;;;4.85;2.83;;;20.70;65.00;;;;;;5025371;28;20045;-47
2023/06/28 05:34:25;;;;;;;6.72;4.15;;;20.70;65.10;;;;;;5029340;28;20139;-48
2023/06/28 05:36:53;;;;;;;5.20;2.67;;;20.70;65.20;;;;;;5005618;28;20050;-46
2023/06/28 05:39:20;;;;;;;6.80;3.17;;;20.70;65.00;;;;;;5025625;28;20103;-46
2023/06/28 05:41:47;;;;;;;4.32;2.83;;;20.70;65.20;;;;;;5029066;28;20518;-47
2023/06/28 05:44:20;;;;;;;3.10;2.80;;;20.70;65.10;;;;;;5010049;28;20052;-48
2023/06/28 05:46:52;;;;;;;3.90;2.78;;;20.80;65.40;;;;;;5018226;28;20429;-47
2023/06/28 05:49:26;;;;;;;6.45;3.00;;;20.70;65.30;;;;;;5024667;28;20045;-48
2023/06/28 05:51:55;;;;;;;5.60;2.95;;;20.80;65.20;;;;;;5027930;28;20439;-46
2023/06/28 05:54:28;;;;;;;3.80;2.63;;;20.80;65.20;;;;;;5006545;28;20057;-48
2023/06/28 05:56:55;;;;;;;4.75;2.80;;;20.80;65.50;;;;;;5026577;28;20128;-46
2023/06/28 05:59:22;;;;;;;3.72;2.13;;;20.90;65.40;;;;;;5029529;28;20080;-46
2023/06/28 06:01:48;;;;;;;6.97;2.95;;;20.90;65.30;;;;;;5026203;28;20042;-49
2023/06/28 06:04:17;;;;;;;8.13;3.10;;;20.90;65.10;;;;;;5004973;28;20049;-46
2023/06/28 06:06:44;;;;;;;6.43;3.00;;;20.90;65.10;;;;;;5025828;28;20037;-47
2023/06/28 06:09:13;;;;;;;5.13;3.53;;;20.90;65.00;;;;;;5029143;28;20045;-48
2023/06/28 06:11:40;;;;;;;3.20;2.90;;;20.90;65.10;;;;;;5011191;28;20034;-48
2023/06/28 06:14:12;;;;;;;4.85;2.47;;;20.90;65.40;;;;;;5021769;28;20099;-48
2023/06/28 06:16:43;;;;;;;4.10;2.40;;;20.90;65.20;;;;;;5029056;28;20053;-46
2023/06/28 06:19:15;;;;;;;6.53;3.30;;;21.00;65.30;;;;;;5008637;28;20041;-49
2023/06/28 06:21:46;;;;;;;5.95;2.65;;;20.90;65.10;;;;;;5027002;28;20525;-46
2023/06/28 06:24:13;;;;;;;3.72;2.65;;;21.00;65.10;;;;;;4998992;28;20042;-46
2023/06/28 06:26:40;;;;;;;4.22;3.13;;;21.00;65.10;;;;;;5028583;28;20045;-48
2023/06/28 06:29:09;;;;;;;4.78;3.53;;;21.00;65.30;;;;;;5031704;28;20189;-47
2023/06/28 06:31:39;;;;;;;4.65;3.00;;;21.00;65.20;;;;;;5017141;28;20084;-46
2023/06/28 06:34:08;;;;;;;5.25;3.13;;;21.00;65.10;;;;;;5031838;28;20042;-47
2023/06/28 06:36:37;;;;;;;7.55;4.03;;;21.00;65.30;;;;;;5032929;28;20414;-49
2023/06/28 06:39:06;;;;;;;6.32;3.60;;;21.00;65.10;;;;;;5028484;28;20492;-50
2023/06/28 06:41:36;;;;;;;6.60;3.67;;;21.00;65.30;;;;;;5008180;28;20050;-48
2023/06/28 06:44:04;;;;;;;7.63;3.47;;;21.10;65.30;;;;;;5029632;28;20053;-46
2023/06/28 06:46:30;;;;;;;4.90;2.97;;;21.10;65.20;;;;;;5020862;28;20041;-46
2023/06/28 06:48:59;;;;;;;6.25;3.40;;;21.10;65.20;;;;;;5011293;28;20050;-50
2023/06/28 06:51:29;;;;;;;6.05;3.30;;;21.20;66.20;;;;;;5032194;28;20103;-47
2023/06/28 06:53:59;;;;;;;5.53;3.53;;;21.20;65.20;;;;;;5013245;28;20068;-50
2023/06/28 06:56:36;;;;;;;7.53;3.30;;;21.20;65.00;;;;;;5025759;28;20092;-47
2023/06/28 06:59:05;;;;;;;4.57;3.53;;;21.30;65.00;;;;;;5031437;28;20037;-47
2023/06/28 07:01:34;;;;;;;5.22;3.30;;;21.30;65.00;;;;;;5026041;28;20120;-47
2023/06/28 07:04:01;;;;;;;5.78;3.45;;;21.30;64.80;;;;;;5014631;28;20041;-48
2023/06/28 07:06:30;;;;;;;4.45;3.10;;;21.40;65.00;;;;;;5026904;28;20418;-49
2023/06/28 07:09:10;;;;;;;7.13;3.17;;;21.40;65.00;;;;;;5030331;28;20551;-46
2023/06/28 07:11:46;;;;;;;6.45;4.75;;;21.40;65.20;;;;;;5009324;28;20111;-50
2023/06/28 07:14:14;;;;;;;5.78;3.78;;;21.50;65.00;;;;;;5032585;28;20073;-48
2023/06/28 07:16:45;;;;;;;4.05;3.55;;;21.50;64.90;;;;;;5032035;28;20041;-49
2023/06/28 07:19:20;;;;;;;4.32;3.35;;;21.60;64.80;;;;;;5020285;28;20072;-47
2023/06/28 07:21:46;;;;;;;4.18;3.35;;;21.60;64.80;;;;;;5019983;28;20079;-49
2023/06/28 07:24:13;;;;;;;5.68;3.17;;;21.60;64.80;;;;;;5008140;28;20095;-46
2023/06/28 07:26:40;;;;;;;6.55;3.33;;;21.60;64.60;;;;;;5012480;28;20038;-47
2023/06/28 07:29:07;;;;;;;8.43;4.75;;;21.70;64.80;;;;;;5012192;28;20042;-50
2023/06/28 07:31:35;;;;;;;6.32;3.70;;;21.70;64.50;;;;;;5023092;28;20449;-47
2023/06/28 07:34:08;;;;;;;5.10;3.30;;;21.80;64.90;;;;;;5032914;28;20050;-46
2023/06/28 07:36:43;;;;;;;7.45;3.70;;;21.90;65.30;;;;;;5005646;28;20057;-47
2023/06/28 07:39:09;;;;;;;6.05;3.42;;;21.90;64.50;;;;;;5021931;28;20042;-45
2023/06/28 07:41:38;;;;;;;5.75;3.08;;;22.00;64.50;;;;;;5021835;28;20144;-46
2023/06/28 07:44:05;;;;;;;5.28;2.80;;;22.10;64.10;;;;;;5012936;28;20104;-47
2023/06/28 07:46:36;;;;;;;6.45;3.42;;;22.20;63.50;;;;;;5022843;28;20156;-46
2023/06/28 07:49:05;;;;;;;3.75;3.00;;;22.20;63.30;;;;;;5023432;28;20122;-50
2023/06/28 07:51:33;;;;;;;5.10;3.08;;;22.30;63.20;;;;;;5007012;28;20069;-49
2023/06/28 07:54:03;;;;;;;3.70;2.58;;;22.30;63.00;;;;;;5004706;28;20050;-50
2023/06/28 07:56:40;;;;;;;5.15;2.78;;;22.40;63.10;;;;;;5029306;28;20112;-48
2023/06/28 07:59:09;;;;;;;5.55;2.95;;;22.40;62.60;;;;;;5022921;28;20065;-46
2023/06/28 08:01:38;;;;;;;6.55;2.97;;;22.50;62.60;;;;;;5012965;28;20045;-47
2023/06/28 08:04:05;;;;;;;5.35;3.60;;;22.50;62.40;;;;;;5026738;28;20037;-50
2023/06/28 08:06:34;;;;;;;6.55;3.20;;;22.50;62.20;;;;;;5017716;28;20561;-46
2023/06/28 08:09:01;;;;;;;7.35;3.22;;;22.60;62.70;;;;;;5015487;28;20517;-49
2023/06/28 08:11:35;;;;;;;3.80;2.17;;;22.60;62.80;;;;;;5010519;28;20053;-47
2023/06/28 08:14:09;;;;;;;6.45;3.03;;;22.70;62.80;;;;;;5022299;28;20073;-48
2023/06/28 08:16:35;;;;;;;4.72;2.70;;;22.70;62.30;;;;;;5030763;28;20073;-45
2023/06/28 08:19:02;;;;;;;5.38;2.78;;;22.80;62.10;;;;;;5027367;28;20069;-47
2023/06/28 08:21:33;;;;;;;6.63;2.72;;;22.90;61.70;;;;;;5003601;28;20140;-46
2023/06/28 08:24:04;;;;;;;7.60;3.22;;;22.90;61.70;;;;;;5008560;28;20458;-47
2023/06/28 08:26:36;;;;;;;6.85;2.85;;;23.00;61.30;;;;;;5026144;28;20041;-46
2023/06/28 08:29:05;;;;;;;2.78;2.22;;;23.00;61.20;;;;;;5020971;28;20050;-47
2023/06/28 08:31:31;;;;;;;4.25;2.40;;;23.10;61.20;;;;;;5031585;28;20494;-47
2023/06/28 08:34:00;;;;;;;5.03;3.10;;;23.10;60.60;;;;;;5027842;28;20042;-46
2023/06/28 08:36:29;;;;;;;4.70;2.63;;;23.20;60.90;;;;;;5003050;28;20094;-47
2023/06/28 08:38:58;;;;;;;2.90;2.17;;;23.20;60.90;;;;;;5023625;28;20116;-47
2023/06/28 08:41:30;;;;;;;5.03;2.45;;;23.30;61.00;;;;;;5015503;28;20132;-46
2023/06/28 08:44:01;;;;;;;4.35;2.78;;;23.30;61.00;;;;;;5011526;28;20060;-46
2023/06/28 08:46:29;;;;;;;4.40;2.50;;;23.30;61.00;;;;;;5029116;28;20053;-48
2023/06/28 08:49:00;;;;;;;3.33;2.42;;;23.30;60.60;;;;;;5028014;28;20073;-45
2023/06/28 08:51:27;;;;;;;3.70;2.50;;;23.30;60.10;;;;;;5015665;28;20042;-47
2023/06/28 08:53:59;;;;;;;2.95;1.98;;;23.40;60.30;;;;;;5002395;28;20545;-46
2023/06/28 08:56:28;;;;;;;;;;;23.40;60.80;;;;;;5018013;28;20505;-47
2023/06/28 08:58:59;;;;;;;4.53;2.10;;;23.50;60.40;;;;;;5028770;28;19921;-47
2023/06/28 09:01:26;;;;;;;3.95;2.50;;;23.50;60.40;;;;;;5011229;28;20045;-46
2023/06/28 09:03:56;;;;;;;6.30;2.70;;;23.60;60.50;;;;;;5009469;28;20046;-47
2023/06/28 09:06:23;;;;;;;5.95;2.42;;;23.70;60.60;;;;;;5010306;28;20049;-48
2023/06/28 09:08:50;;;;;;;4.90;2.63;;;23.80;59.70;;;;;;5023502;28;20069;-50
2023/06/28 09:11:20;;;;;;;6.47;3.20;;;23.90;60.00;;;;;;5018055;28;20122;-46
2023/06/28 09:13:50;;;;;;;4.70;2.10;;;24.00;59.30;;;;;;5021864;28;20041;-47
2023/06/28 09:16:17;;;;;;;3.53;2.70;;;24.10;58.90;;;;;;5029533;28;20091;-47
2023/06/28 09:18:44;;;;;;;6.13;2.60;;;24.20;58.60;;;;;;5028869;28;20053;-49
2023/06/28 09:21:28;;;;;;;5.45;2.65;;;24.30;58.00;;;;;;5009350;28;20070;-46
2023/06/28 09:23:57;;;;;;;8.25;2.65;;;24.30;57.50;;;;;;5003904;28;20066;-48
2023/06/28 09:26:35;;;;;;;3.97;2.35;;;24.40;57.70;;;;;;5015102;28;20049;-47
2023/06/28 09:29:12;;;;;;;6.57;2.40;;;24.50;57.90;;;;;;5011568;28;20088;-47
2023/06/28 09:31:42;;;;;;;8.18;2.80;;;24.50;56.90;;;;;;5028482;28;20037;-51
2023/06/28 09:34:09;;;;;;;5.28;2.53;;;24.40;57.60;;;;;;5029678;28;20415;-51
2023/06/28 09:36:38;;;;;;;5.38;2.25;;;24.40;56.50;;;;;;5017458;28;20090;-50
2023/06/28 09:39:10;;;;;;;4.32;2.13;;;24.40;56.80;;;;;;5022758;28;20042;-48
2023/06/28 09:41:42;;;;;;;2.78;1.83;;;24.30;57.30;;;;;;5021543;28;20065;-48
2023/06/28 09:44:10;;;;;;;4.82;2.42;;;24.30;56.10;;;;;;5027989;28;20053;-50
2023/06/28 09:46:47;;;;;;;5.20;2.58;;;24.30;56.30;;;;;;5013681;28;20053;-48
2023/06/28 09:49:23;;;;;;;6.40;2.55;;;24.30;56.20;;;;;;5027737;28;20061;-50
2023/06/28 09:52:02;;;;;;;3.35;2.22;;;24.20;55.60;;;;;;5028995;28;20045;-50
2023/06/28 09:54:33;;;;;;;5.05;2.17;;;24.20;56.30;;;;;;5001286;28;20538;-49
2023/06/28 09:57:01;;;;;;;4.30;2.60;;;24.20;56.00;;;;;;5025880;28;20037;-49
2023/06/28 09:59:36;;;;;;;5.22;3.03;;;24.20;57.10;;;;;;5005564;28;20037;-48
2023/06/28 10:02:07;;;;;;;4.03;2.08;;;24.20;57.00;;;;;;5005891;28;20042;-48
2023/06/28 10:04:36;;;;;;;3.30;2.30;;;24.20;56.80;;;;;;5020944;28;20040;-50
2023/06/28 10:07:09;;;;;;;5.13;2.78;;;24.20;56.90;;;;;;5033162;28;20045;-50
2023/06/28 10:09:40;;;;;;;11.15;2.67;;;24.20;56.50;;;;;;5024088;28;20048;-50
2023/06/28 10:12:24;;;;;;;4.47;2.63;;;24.20;56.50;;;;;;5010316;28;20046;-47
2023/06/28 10:15:02;;;;;;;5.65;2.40;;;24.20;56.10;;;;;;5025624;28;20526;-50
2023/06/28 10:17:40;;;;;;;5.45;2.78;;;24.20;56.60;;;;;;5033310;28;20067;-50
2023/06/28 10:20:08;;;;;;;5.85;2.80;;;24.30;56.80;;;;;;5019072;28;20038;-49
2023/06/28 10:22:36;;;;;;;7.45;3.17;;;24.30;57.00;;;;;;5024364;28;20041;-49
2023/06/28 10:25:05;;;;;;;3.83;2.45;;;24.30;56.90;;;;;;5009552;28;20037;-51
2023/06/28 10:27:33;;;;;;;4.53;2.80;;;24.40;56.70;;;;;;5018744;28;20037;-51
2023/06/28 10:30:01;;;;;;;3.55;2.08;;;24.50;56.70;;;;;;5017131;28;20041;-50
2023/06/28 10:32:33;;;;;;;3.75;2.40;;;24.50;56.60;;;;;;5010599;28;20040;-51
2023/06/28 10:35:02;;;;;;;5.85;2.67;;;24.60;57.00;;;;;;5016151;28;20049;-51
2023/06/28 10:37:32;;;;;;;5.93;2.50;;;24.80;56.40;;;;;;5018128;28;20643;-50
2023/06/28 10:40:03;;;;;;;4.03;2.50;;;24.90;55.90;;;;;;5027853;28;20117;-51
2023/06/28 10:42:40;;;;;;;4.47;2.85;;;25.00;55.80;;;;;;5017237;28;20049;-49
2023/06/28 10:45:14;;;;;;;3.95;2.65;;;25.10;55.00;;;;;;5028875;28;20115;-48
2023/06/28 10:47:55;;;;;;;3.05;2.72;;;25.20;54.00;;;;;;5016679;28;20108;-50
2023/06/28 10:50:23;;;;;;;4.30;3.03;;;25.30;53.50;;;;;;5030882;28;20049;-49
2023/06/28 10:52:54;;;;;;;3.65;2.63;;;25.40;53.90;;;;;;5023197;28;20060;-49
2023/06/28 10:55:29;;;;;;;5.97;2.63;;;25.50;54.00;;;;;;5012615;28;20425;-50
2023/06/28 10:58:12;;;;;;;4.95;3.17;;;25.60;53.40;;;;;;5031504;28;20049;-51
2023/06/28 11:00:49;;;;;;;3.50;2.70;;;25.70;52.30;;;;;;5027146;28;20510;-49
2023/06/28 11:03:21;;;;;;;6.68;3.35;;;25.80;51.80;;;;;;5001917;28;20042;-50
2023/06/28 11:05:55;;;;;;;5.50;2.40;;;25.90;51.60;;;;;;5021675;28;20052;-50
2023/06/28 11:08:40;;;;;;;5.13;2.53;;;26.00;51.20;;;;;;5031061;28;20115;-51
2023/06/28 11:11:23;;;;;;;5.28;2.80;;;26.10;50.00;;;;;;5019439;28;20041;-50
2023/06/28 11:13:52;;;;;;;4.35;2.38;;;26.20;51.30;;;;;;5020984;28;20058;-50
2023/06/28 11:16:24;;;;;;;5.55;3.25;;;26.30;50.70;;;;;;5030220;28;20041;-47
2023/06/28 11:18:52;;;;;;;4.47;2.50;;;26.40;49.70;;;;;;5031017;28;20042;-51
2023/06/28 11:21:24;;;;;;;4.80;2.33;;;26.50;49.90;;;;;;5007670;28;20061;-50
2023/06/28 11:23:56;;;;;;;5.15;2.33;;;26.60;50.70;;;;;;5001566;28;20045;-49
2023/06/28 11:26:36;;;;;;;4.10;2.58;;;26.60;50.10;;;;;;5027831;28;20045;-50
2023/06/28 11:29:20;;;;;;;6.45;3.20;;;26.80;49.40;;;;;;5011163;28;20105;-51
2023/06/28 11:32:05;;;;;;;5.72;3.05;;;26.90;49.20;;;;;;5020828;28;20522;-50
2023/06/28 11:34:36;;;;;;;5.03;2.58;;;27.00;49.30;;;;;;5016245;28;20120;-48
2023/06/28 11:37:08;;;;;;;4.63;2.42;;;27.10;49.10;;;;;;5043270;22;20269;-47
2023/06/28 11:39:35;;;;;;;3.55;2.97;;;27.20;49.30;;;;;;5025144;28;20452;-46
2023/06/28 11:42:07;;;;;;;5.35;3.05;;;27.30;48.60;;;;;;5031892;28;20089;-47
2023/06/28 11:44:46;;;;;;;5.18;2.65;;;27.40;49.20;;;;;;5023138;28;20049;-48
2023/06/28 11:47:15;;;;;;;5.32;2.60;;;27.50;48.50;;;;;;5022315;28;20121;-47
2023/06/28 11:49:46;;;;;;;4.20;2.65;;;27.60;48.10;;;;;;5028092;28;20065;-47
2023/06/28 11:52:22;;;;;;;4.90;2.65;;;27.80;48.30;;;;;;5032435;28;20061;-46
2023/06/28 11:54:51;;;;;;;5.18;2.63;;;27.90;48.10;;;;;;5026375;28;20478;-48
2023/06/28 11:57:22;;;;;;;6.47;2.47;;;28.00;47.30;;;;;;5031525;28;20083;-47
2023/06/28 11:59:52;;;;;;;3.23;2.37;;;28.10;47.90;;;;;;5031336;28;20140;-46
2023/06/28 12:02:18;;;;;;;7.97;2.75;;;28.30;47.40;;;;;;5029461;28;20304;-46
2023/06/28 12:04:59;;;;;;;5.75;2.65;;;28.40;47.20;;;;;;5022863;28;20041;-47
2023/06/28 12:07:30;;;;;;;5.45;2.75;;;28.60;45.90;;;;;;5031437;28;20515;-46
2023/06/28 12:09:59;;;;;;;5.78;2.45;;;28.60;46.00;;;;;;5024548;28;20045;-47
2023/06/28 12:12:38;;;;;;;5.80;2.70;;;28.70;45.50;;;;;;5021378;28;20045;-47
2023/06/28 12:15:11;;;;;;;5.03;2.55;;;28.90;45.50;;;;;;5028031;28;20120;-47
2023/06/28 12:17:45;;;;;;;3.55;2.50;;;29.00;45.20;;;;;;5030357;28;20040;-49
2023/06/28 12:20:22;;;;;;;;;;;;;;;;;;;;;
2023/06/28 12:22:54;;;;;;;3.25;2.95;;;29.20;44.90;;;;;;5017274;28;20059;-49
2023/06/28 12:25:30;;;;;;;5.25;2.75;;;29.20;45.00;;;;;;5023282;28;20387;-48
2023/06/28 12:28:04;;;;;;;6.35;2.78;;;29.30;44.00;;;;;;5022917;28;20076;-51
2023/06/28 12:30:33;;;;;;;6.97;2.60;;;29.30;43.50;;;;;;5026273;28;20044;-48
2023/06/28 12:33:08;;;;;;;4.20;2.78;;;29.30;45.00;;;;;;5031732;28;20087;-48
2023/06/28 12:35:38;;;;;;;4.85;2.58;;;29.30;43.50;;;;;;5012382;28;20092;-50
2023/06/28 12:38:10;;;;;;;5.07;3.28;;;29.30;43.60;;;;;;5026773;28;20156;-47
2023/06/28 12:40:37;;;;;;;3.40;2.78;;;29.30;43.20;;;;;;5031017;28;20039;-51
2023/06/28 12:43:12;;;;;;;4.10;2.00;;;29.40;43.60;;;;;;5025061;28;20100;-47
2023/06/28 12:45:50;;;;;;;4.40;2.80;;;29.50;44.90;;;;;;5023029;28;20048;-51
2023/06/28 12:48:21;;;;;;;5.57;2.75;;;29.50;43.30;;;;;;5029735;28;20094;-50
2023/06/28 12:50:51;;;;;;;6.75;3.25;;;29.60;43.80;;;;;;5025654;28;20069;-52
2023/06/28 12:53:24;;;;;;;7.07;2.80;;;29.70;43.70;;;;;;5020757;28;20054;-50
2023/06/28 12:55:50;;;;;;;5.47;2.80;;;29.70;43.20;;;;;;5028444;28;20041;-50
2023/06/28 12:58:20;;;;;;;6.07;2.80;;;29.80;43.00;;;;;;5030556;28;20073;-48
2023/06/28 13:00:49;;;;;;;5.25;3.03;;;29.90;43.40;;;;;;5030629;28;20045;-50
2023/06/28 13:03:16;;;;;;;6.75;3.03;;;30.00;44.10;;;;;;5027521;28;20136;-50